GUCY/CKY METAR and TAF weather

Enter ICAO airport designator
Station Type Date Time Source
GUCY METAR 2018/10/22 16:00 UTC NOAA

GUCY 221600Z 25006KT 9999 SCT015 FEW023CB 31/25 Q1009 CB/N


Station Type Date Time Source
GUCY Decoded METAR 2018/10/22 16:00 UTC NOAA

Conakry / Gbessia, Guinea (GUCY) 09-34N 013-37W 26M
Oct 22, 2018 - 12:00 PM EDT / 2018.10.22 1600 UTC
Wind: from the WSW (250 degrees) at 7 MPH (6 KT):0
Visibility: greater than 7 mile(s):0
Sky conditions: partly cloudy
Weather: Cumulonimbus clouds observed
Temperature: 87 F (31 C)
Heat index: 97.5 F (36.4 C):1
Dew Point: 77 F (25 C)
Relative Humidity: 70%
Pressure (altimeter): 29.80 in. Hg (1009 hPa)
ob: GUCY 221600Z 25006KT 9999 SCT015 FEW023CB 31/25 Q1009 CB/N
cycle: 16

Station Type Date Time Source
GUCY TAF 2018/10/22 12:42 UTC NOAA

TAF TAF GUCY 221100Z 2212/2318 23008KT 9999 SCT015 SCT110 PROB30
TEMPO 2219/2223 16012KT 7000 -TSRA BKN012 FEW023CB BKN100
BECMG 2305/2309 VRB02KT


Example: see airport list